Time;durP1;ratioP1;P1;durP2;ratioP2;P2;SDS_P1;SDS_P2;PMS_P1;PMS_P2;Temp;Humidity;BMP_temperature;BMP_pressure;BME280_temperature;BME280_humidity;BME280_pressure;Samples;Min_cycle;Max_cycle;Signal;HPM_P1;HPM_P2
2022/02/25 00:00:20;;;;;;;6.60;3.40;;;7.60;99.90;;;;;;5060143;28;20204;-48
2022/02/25 00:02:47;;;;;;;4.95;3.95;;;7.80;99.90;;;;;;5060328;28;20518;-49
2022/02/25 00:05:15;;;;;;;3.88;2.53;;;8.00;99.90;;;;;;5060305;28;20416;-48
2022/02/25 00:07:43;;;;;;;5.13;3.25;;;8.20;99.90;;;;;;5060363;28;20254;-48
2022/02/25 00:10:10;;;;;;;5.50;4.18;;;8.30;99.90;;;;;;5059964;28;20242;-47
2022/02/25 00:12:38;;;;;;;9.57;5.72;;;8.40;99.90;;;;;;5059935;28;20241;-50
2022/02/25 00:15:06;;;;;;;5.28;3.45;;;8.50;99.90;;;;;;5060250;28;20510;-50
2022/02/25 00:17:33;;;;;;;4.47;3.78;;;8.50;99.90;;;;;;5059922;28;20252;-44
2022/02/25 00:20:01;;;;;;;8.57;4.25;;;8.50;99.90;;;;;;5059710;28;20231;-46
2022/02/25 00:22:28;;;;;;;6.10;3.20;;;8.60;99.90;;;;;;5059772;28;20262;-51
2022/02/25 00:24:56;;;;;;;6.40;4.00;;;8.50;99.90;;;;;;5060091;28;20195;-48
2022/02/25 00:27:23;;;;;;;6.45;4.57;;;8.50;99.90;;;;;;5059552;28;20249;-45
2022/02/25 00:29:50;;;;;;;5.60;3.58;;;8.60;99.90;;;;;;5059508;28;20388;-48
2022/02/25 00:32:18;;;;;;;6.53;2.90;;;8.60;99.90;;;;;;5059139;28;20220;-49
2022/02/25 00:34:45;;;;;;;6.00;4.00;;;8.60;99.90;;;;;;5059581;28;20513;-50
2022/02/25 00:37:12;;;;;;;6.40;3.30;;;8.60;99.90;;;;;;5059617;28;20222;-48
2022/02/25 00:39:39;;;;;;;4.97;4.00;;;8.70;99.90;;;;;;5059166;28;20227;-52
2022/02/25 00:42:10;;;;;;;7.25;4.68;;;8.80;99.90;;;;;;5059453;28;20215;-50
2022/02/25 00:44:38;;;;;;;2.78;2.40;;;8.90;99.90;;;;;;5059373;28;20200;-53
2022/02/25 00:47:06;;;;;;;5.30;2.55;;;8.60;99.90;;;;;;5060251;28;20205;-51
2022/02/25 00:49:33;;;;;;;1.33;1.20;;;8.70;99.90;;;;;;5060545;28;20247;-47
2022/02/25 00:52:01;;;;;;;1.08;0.73;;;8.60;99.90;;;;;;5060732;28;20546;-45
2022/02/25 00:54:28;;;;;;;1.77;1.15;;;8.50;99.90;;;;;;5061032;28;20237;-48
2022/02/25 00:56:56;;;;;;;0.50;0.50;;;8.40;99.90;;;;;;5061188;28;20221;-46
2022/02/25 00:59:23;;;;;;;0.65;0.50;;;8.20;99.90;;;;;;5061069;28;20438;-48
2022/02/25 01:01:51;;;;;;;0.40;0.40;;;8.20;99.90;;;;;;5060134;28;20245;-47
2022/02/25 01:04:19;;;;;;;0.50;0.50;;;8.10;99.90;;;;;;5059513;28;20222;-44
2022/02/25 01:06:48;;;;;;;0.60;0.60;;;8.00;99.90;;;;;;5058754;28;20258;-44
2022/02/25 01:09:16;;;;;;;0.88;0.88;;;8.00;99.90;;;;;;5059318;28;20518;-48
2022/02/25 01:11:43;;;;;;;1.30;0.90;;;7.90;99.90;;;;;;5058661;28;20265;-46
2022/02/25 01:14:10;;;;;;;0.93;0.80;;;7.90;99.90;;;;;;5059083;28;20208;-46
2022/02/25 01:16:38;;;;;;;0.80;0.80;;;7.90;99.90;;;;;;5058782;28;20199;-51
2022/02/25 01:19:05;;;;;;;0.90;0.68;;;7.80;99.90;;;;;;5059121;28;20280;-49
2022/02/25 01:21:32;;;;;;;0.80;0.60;;;7.70;99.90;;;;;;5059232;28;20215;-50
2022/02/25 01:23:59;;;;;;;1.10;0.57;;;7.70;99.90;;;;;;5052157;28;20272;-45
2022/02/25 01:26:28;;;;;;;0.88;0.60;;;7.50;99.90;;;;;;5058944;28;20203;-49
2022/02/25 01:28:55;;;;;;;0.73;0.50;;;7.30;99.90;;;;;;5058754;28;20445;-49
2022/02/25 01:31:23;;;;;;;0.55;0.47;;;7.20;99.90;;;;;;5059042;28;20604;-46
2022/02/25 01:33:50;;;;;;;0.57;0.50;;;7.10;99.90;;;;;;5058707;28;20586;-44
2022/02/25 01:36:17;;;;;;;1.85;0.50;;;7.00;99.90;;;;;;5059170;28;20528;-49
2022/02/25 01:38:45;;;;;;;0.40;0.40;;;6.80;99.90;;;;;;5059142;28;20222;-50
2022/02/25 01:41:13;;;;;;;0.73;0.73;;;6.70;99.90;;;;;;5061251;28;20219;-48
2022/02/25 01:43:42;;;;;;;1.00;0.75;;;6.50;99.90;;;;;;5063438;28;20201;-47
2022/02/25 01:46:09;;;;;;;2.88;0.88;;;6.40;99.90;;;;;;5065395;28;20355;-47
2022/02/25 01:48:37;;;;;;;0.70;0.60;;;6.30;99.90;;;;;;5065394;28;20207;-47
2022/02/25 01:51:05;;;;;;;0.50;0.50;;;6.20;99.90;;;;;;5063706;28;20219;-50
2022/02/25 01:53:32;;;;;;;1.17;0.70;;;6.20;99.90;;;;;;5063210;28;20203;-47
2022/02/25 01:56:00;;;;;;;1.05;0.60;;;6.10;99.90;;;;;;5062586;28;20584;-46
2022/02/25 01:58:28;;;;;;;1.50;0.63;;;6.10;99.90;;;;;;5062986;28;20226;-51
2022/02/25 02:00:59;;;;;;;0.68;0.68;;;6.10;99.90;;;;;;5062266;28;20227;-50
2022/02/25 02:03:27;;;;;;;0.77;0.55;;;6.10;99.90;;;;;;5062669;28;20465;-48
2022/02/25 02:05:55;;;;;;;2.58;0.50;;;6.00;99.90;;;;;;5062977;28;20230;-47
2022/02/25 02:08:22;;;;;;;1.02;0.70;;;6.00;99.90;;;;;;5062156;28;20257;-46
2022/02/25 02:10:52;;;;;;;0.55;0.55;;;6.00;99.90;;;;;;5062213;28;20519;-46
2022/02/25 02:13:19;;;;;;;1.80;0.80;;;6.00;99.90;;;;;;5062084;28;20195;-45
2022/02/25 02:15:47;;;;;;;1.33;1.20;;;6.00;99.90;;;;;;5062473;28;20195;-47
2022/02/25 02:18:14;;;;;;;0.60;0.60;;;6.00;99.90;;;;;;5062209;28;20200;-50
2022/02/25 02:20:42;;;;;;;5.95;0.82;;;5.90;99.90;;;;;;5062132;28;20227;-47
2022/02/25 02:23:09;;;;;;;0.90;0.60;;;6.00;99.90;;;;;;5063004;28;20378;-45
2022/02/25 02:25:37;;;;;;;6.55;0.80;;;6.00;99.90;;;;;;5062897;28;20291;-50
2022/02/25 02:28:20;;;;;;;1.15;0.80;;;6.00;99.90;;;;;;5063091;28;20201;-47
2022/02/25 02:30:49;;;;;;;2.20;1.15;;;6.00;99.90;;;;;;5063019;28;20246;-46
2022/02/25 02:33:16;;;;;;;1.30;1.00;;;6.00;99.90;;;;;;5062380;28;20199;-45
2022/02/25 02:35:43;;;;;;;2.60;0.82;;;5.90;99.90;;;;;;5061965;28;20199;-46
2022/02/25 02:38:11;;;;;;;1.10;1.00;;;5.80;99.90;;;;;;5063207;28;20286;-44
2022/02/25 02:40:38;;;;;;;0.82;0.70;;;5.70;99.90;;;;;;5063031;28;20223;-49
2022/02/25 02:43:07;;;;;;;0.88;0.50;;;5.70;99.90;;;;;;5064423;28;20230;-48
2022/02/25 02:45:34;;;;;;;0.60;0.55;;;5.60;99.90;;;;;;5065170;28;20200;-50
2022/02/25 02:48:02;;;;;;;1.00;0.70;;;5.70;99.90;;;;;;5064509;28;20378;-46
2022/02/25 02:50:29;;;;;;;2.05;0.80;;;5.70;99.90;;;;;;5062911;28;20290;-52
2022/02/25 02:52:56;;;;;;;0.98;0.85;;;5.60;99.90;;;;;;5060243;28;20478;-48
2022/02/25 02:55:24;;;;;;;0.40;0.40;;;5.60;99.90;;;;;;5062142;28;20203;-47
2022/02/25 02:57:52;;;;;;;0.68;0.65;;;5.50;99.90;;;;;;5061461;28;20253;-49
2022/02/25 03:00:19;;;;;;;0.63;0.60;;;5.50;99.90;;;;;;5061691;28;20303;-46
2022/02/25 03:02:46;;;;;;;0.90;0.70;;;5.50;99.90;;;;;;5062320;28;20204;-47
2022/02/25 03:05:13;;;;;;;1.00;0.90;;;5.50;99.90;;;;;;5062315;28;20506;-43
2022/02/25 03:07:40;;;;;;;0.50;0.50;;;5.40;99.90;;;;;;5061644;28;20245;-51
2022/02/25 03:10:10;;;;;;;0.98;0.88;;;5.40;99.90;;;;;;5062305;28;20241;-46
2022/02/25 03:12:40;;;;;;;0.65;0.65;;;5.40;99.90;;;;;;5062129;28;20398;-47
2022/02/25 03:15:11;;;;;;;1.30;0.80;;;5.40;99.90;;;;;;5061940;28;20249;-45
2022/02/25 03:17:40;;;;;;;0.80;0.80;;;5.40;99.90;;;;;;5061699;28;20409;-49
2022/02/25 03:20:09;;;;;;;0.75;0.70;;;5.30;99.90;;;;;;5061898;28;20222;-46
2022/02/25 03:22:37;;;;;;;1.10;1.05;;;5.30;99.90;;;;;;5061910;28;20237;-44
2022/02/25 03:25:05;;;;;;;0.70;0.70;;;5.20;99.90;;;;;;5061774;28;20203;-45
2022/02/25 03:27:33;;;;;;;1.15;0.70;;;5.20;99.90;;;;;;5061873;28;20595;-46
2022/02/25 03:30:01;;;;;;;3.60;1.20;;;5.20;99.90;;;;;;5061445;28;20476;-48
2022/02/25 03:32:28;;;;;;;1.15;1.00;;;5.20;99.90;;;;;;5043185;28;20234;-48
2022/02/25 03:34:56;;;;;;;1.20;0.80;;;5.20;99.90;;;;;;5060792;28;20213;-48
2022/02/25 03:37:24;;;;;;;3.03;0.70;;;5.20;99.90;;;;;;5060899;28;20215;-45
2022/02/25 03:39:51;;;;;;;0.70;0.70;;;5.40;99.90;;;;;;5060860;28;20226;-46
2022/02/25 03:42:19;;;;;;;0.75;0.65;;;5.30;99.90;;;;;;5060931;28;20227;-49
2022/02/25 03:44:48;;;;;;;1.45;1.25;;;5.30;99.90;;;;;;5060992;28;20199;-52
2022/02/25 03:47:15;;;;;;;2.55;1.70;;;5.30;99.90;;;;;;5060942;28;20190;-51
2022/02/25 03:49:44;;;;;;;1.95;1.10;;;5.30;99.90;;;;;;5060850;28;20217;-46
2022/02/25 03:52:11;;;;;;;1.45;1.00;;;5.30;99.90;;;;;;5060621;28;20223;-52
2022/02/25 03:54:38;;;;;;;3.58;1.88;;;5.30;99.90;;;;;;5060822;28;20210;-46
2022/02/25 03:57:06;;;;;;;5.03;1.90;;;5.30;99.90;;;;;;5060951;28;20202;-46
2022/02/25 03:59:33;;;;;;;4.60;2.15;;;5.30;99.90;;;;;;5060391;28;20223;-48
2022/02/25 04:02:00;;;;;;;1.60;1.40;;;5.20;99.90;;;;;;5060758;28;20680;-42
2022/02/25 04:04:28;;;;;;;2.50;1.15;;;5.10;99.90;;;;;;5060146;28;20552;-49
2022/02/25 04:06:55;;;;;;;1.75;1.55;;;5.10;99.90;;;;;;5060472;28;20206;-45
2022/02/25 04:09:25;;;;;;;0.93;0.90;;;5.20;99.90;;;;;;5060199;28;20506;-48
2022/02/25 04:11:53;;;;;;;2.25;1.80;;;5.10;99.90;;;;;;5060312;28;20598;-44
2022/02/25 04:14:21;;;;;;;1.15;1.05;;;5.10;99.90;;;;;;5060431;28;20206;-51
2022/02/25 04:16:51;;;;;;;1.90;1.30;;;5.10;99.90;;;;;;5060373;28;20199;-45
2022/02/25 04:19:20;;;;;;;2.08;1.95;;;5.00;99.90;;;;;;5060492;28;20405;-47
2022/02/25 04:21:47;;;;;;;1.70;1.60;;;5.00;99.90;;;;;;5059743;28;20237;-46
2022/02/25 04:24:16;;;;;;;1.60;1.50;;;5.10;99.90;;;;;;5060260;28;20244;-48
2022/02/25 04:26:43;;;;;;;1.50;1.20;;;5.10;99.90;;;;;;5060078;28;20475;-51
2022/02/25 04:29:11;;;;;;;2.42;1.98;;;5.10;99.90;;;;;;5060188;28;20256;-46
2022/02/25 04:31:38;;;;;;;1.85;1.58;;;5.20;99.90;;;;;;5060130;28;20219;-49
2022/02/25 04:34:06;;;;;;;2.88;2.17;;;5.20;99.90;;;;;;5059686;28;20202;-49
2022/02/25 04:36:36;;;;;;;1.63;1.52;;;5.20;99.90;;;;;;5059933;28;20402;-48
2022/02/25 04:39:05;;;;;;;2.28;2.08;;;5.00;99.90;;;;;;5059454;28;20249;-46
2022/02/25 04:41:35;;;;;;;3.25;2.15;;;4.80;99.90;;;;;;5059596;28;20222;-47
2022/02/25 04:44:03;;;;;;;2.40;2.20;;;4.50;99.90;;;;;;5059137;28;20202;-46
2022/02/25 04:46:30;;;;;;;2.22;2.05;;;4.30;99.90;;;;;;5059807;28;20638;-45
2022/02/25 04:48:58;;;;;;;4.55;2.90;;;4.10;99.90;;;;;;5059199;28;20409;-45
2022/02/25 04:51:25;;;;;;;2.00;1.83;;;3.80;99.90;;;;;;5059652;28;20218;-49
2022/02/25 04:53:52;;;;;;;4.05;2.92;;;3.60;99.90;;;;;;5059395;28;20234;-47
2022/02/25 04:56:23;;;;;;;2.60;2.40;;;3.50;99.90;;;;;;5059982;28;20206;-45
2022/02/25 04:58:50;;;;;;;3.38;2.28;;;3.30;99.90;;;;;;5059327;28;20198;-46
2022/02/25 05:01:18;;;;;;;2.55;2.35;;;3.30;99.90;;;;;;5058579;28;20264;-47
2022/02/25 05:03:46;;;;;;;2.20;2.00;;;3.30;99.90;;;;;;5059732;28;20198;-47
2022/02/25 05:06:13;;;;;;;4.40;3.35;;;3.30;99.90;;;;;;5064008;28;20204;-48
2022/02/25 05:08:41;;;;;;;2.25;2.05;;;3.30;99.90;;;;;;5060555;28;20256;-52
2022/02/25 05:11:09;;;;;;;2.00;1.75;;;3.20;99.90;;;;;;5059227;28;20225;-47
2022/02/25 05:13:36;;;;;;;2.42;1.92;;;3.10;99.90;;;;;;5059022;28;20291;-47
2022/02/25 05:21:36;;;;;;;3.20;2.60;;;2.90;99.90;;;;;;5058666;28;20229;-48
2022/02/25 05:24:04;;;;;;;5.00;3.58;;;2.90;99.90;;;;;;5058756;28;20316;-45
2022/02/25 05:26:31;;;;;;;2.72;2.53;;;2.90;99.90;;;;;;5059083;28;20308;-53
2022/02/25 05:28:59;;;;;;;3.85;3.55;;;3.00;99.90;;;;;;5058566;28;20260;-45
2022/02/25 05:31:26;;;;;;;4.07;3.58;;;3.20;99.90;;;;;;5059491;28;20258;-47
2022/02/25 05:33:53;;;;;;;4.40;3.50;;;3.30;99.90;;;;;;5058533;28;20606;-47
2022/02/25 05:36:20;;;;;;;3.50;3.20;;;3.40;99.90;;;;;;5059242;28;20277;-47
2022/02/25 05:38:49;;;;;;;5.50;2.80;;;3.50;99.90;;;;;;5058808;28;20198;-46
2022/02/25 05:41:17;;;;;;;3.20;2.90;;;3.70;99.90;;;;;;5058981;28;20288;-48
2022/02/25 05:43:45;;;;;;;3.17;2.90;;;3.90;99.90;;;;;;5059420;28;20209;-49
2022/02/25 05:46:12;;;;;;;4.45;3.10;;;4.00;99.90;;;;;;5059719;28;20206;-45
2022/02/25 05:48:40;;;;;;;3.97;3.58;;;4.00;99.90;;;;;;5059059;28;20390;-50
2022/02/25 05:51:07;;;;;;;3.35;3.05;;;3.90;99.90;;;;;;5059854;28;20222;-47
2022/02/25 05:53:35;;;;;;;3.03;2.80;;;3.90;99.90;;;;;;5059656;28;20513;-47
2022/02/25 05:56:02;;;;;;;3.67;3.15;;;3.80;99.90;;;;;;5059172;28;20216;-48
2022/02/25 05:58:29;;;;;;;2.63;2.40;;;3.70;99.90;;;;;;5059187;28;20225;-51
2022/02/25 06:00:56;;;;;;;3.05;2.80;;;3.70;99.90;;;;;;5046547;28;20477;-44
2022/02/25 06:03:24;;;;;;;3.05;2.83;;;3.70;99.90;;;;;;5052513;28;20536;-50
2022/02/25 06:05:51;;;;;;;4.70;2.20;;;3.60;99.90;;;;;;5058379;28;20430;-52
2022/02/25 06:08:18;;;;;;;2.47;2.28;;;3.70;99.90;;;;;;5055084;28;20203;-56
2022/02/25 06:10:46;;;;;;;4.10;2.67;;;3.90;99.90;;;;;;5057024;28;20222;-48
2022/02/25 06:13:13;;;;;;;4.57;3.85;;;4.20;99.90;;;;;;5057177;28;20201;-46
2022/02/25 06:15:41;;;;;;;2.47;2.28;;;4.10;99.90;;;;;;5057497;28;20345;-47
2022/02/25 06:18:08;;;;;;;2.83;2.60;;;4.30;99.90;;;;;;5058726;28;20211;-51
2022/02/25 06:20:37;;;;;;;3.28;2.03;;;4.30;99.90;;;;;;5057984;28;20545;-47
2022/02/25 06:23:05;;;;;;;4.53;2.47;;;4.30;99.90;;;;;;5057601;28;20202;-48
2022/02/25 06:25:33;;;;;;;2.45;2.25;;;4.30;99.90;;;;;;5057244;28;20198;-47
2022/02/25 06:28:03;;;;;;;3.85;2.28;;;4.30;99.90;;;;;;5060798;28;20673;-49
2022/02/25 06:30:31;;;;;;;2.97;2.17;;;4.10;99.90;;;;;;5061362;28;20207;-45
2022/02/25 06:32:58;;;;;;;4.57;2.75;;;3.90;99.90;;;;;;5062014;28;20244;-49
2022/02/25 06:35:28;;;;;;;3.40;2.00;;;3.90;99.90;;;;;;5061504;28;20528;-48
2022/02/25 06:37:56;;;;;;;2.13;1.92;;;3.80;99.90;;;;;;5061317;28;20278;-52
2022/02/25 06:40:23;;;;;;;3.10;2.80;;;3.80;99.90;;;;;;5060638;28;20236;-45
2022/02/25 06:42:51;;;;;;;3.53;2.70;;;3.80;99.90;;;;;;5060620;28;20280;-47
2022/02/25 06:45:20;;;;;;;1.70;1.58;;;3.60;99.90;;;;;;5061303;28;20624;-49
2022/02/25 06:47:48;;;;;;;4.35;3.10;;;3.60;99.90;;;;;;5060596;28;20198;-45
2022/02/25 06:50:18;;;;;;;11.95;3.28;;;3.90;99.90;;;;;;5061315;28;20605;-51
2022/02/25 06:52:46;;;;;;;10.35;2.75;;;4.30;99.90;;;;;;5060589;28;20199;-49
2022/02/25 06:55:17;;;;;;;4.65;2.00;;;4.60;99.90;;;;;;5060773;28;20203;-52
2022/02/25 06:58:00;;;;;;;3.88;1.75;;;4.90;99.90;;;;;;5060585;28;20248;-45
2022/02/25 07:00:27;;;;;;;2.38;2.17;;;5.10;99.90;;;;;;5054995;28;20736;-45
2022/02/25 07:02:57;;;;;;;4.43;1.77;;;5.10;99.90;;;;;;5052667;28;20591;-51
2022/02/25 07:05:25;;;;;;;6.45;1.85;;;5.20;99.90;;;;;;5052771;28;20203;-49
2022/02/25 07:07:54;;;;;;;2.20;1.88;;;5.30;99.90;;;;;;5054278;28;20329;-49
2022/02/25 07:10:27;;;;;;;3.03;2.70;;;5.60;99.90;;;;;;5052497;28;20214;-45
2022/02/25 07:12:55;;;;;;;2.75;2.17;;;6.00;99.90;;;;;;5032657;28;20204;-53
2022/02/25 07:15:22;;;;;;;2.13;1.92;;;6.00;99.90;;;;;;5055545;28;20211;-51
2022/02/25 07:17:49;;;;;;;5.85;1.85;;;6.20;99.90;;;;;;5058583;28;20199;-52
2022/02/25 07:20:16;;;;;;;1.98;1.75;;;6.40;99.90;;;;;;5056065;28;20231;-49
2022/02/25 07:22:46;;;;;;;2.78;1.77;;;6.90;99.90;;;;;;5062806;28;20200;-48
2022/02/25 07:25:17;;;;;;;3.42;2.20;;;7.20;99.90;;;;;;5060087;28;20214;-48
2022/02/25 07:27:45;;;;;;;2.38;2.17;;;7.10;99.90;;;;;;5059817;28;20195;-48
2022/02/25 07:30:14;;;;;;;3.38;2.15;;;6.80;99.90;;;;;;5059746;28;20391;-51
2022/02/25 07:32:43;;;;;;;1.35;1.20;;;7.10;99.90;;;;;;5059568;28;20208;-54
2022/02/25 07:35:12;;;;;;;4.50;1.95;;;7.50;99.90;;;;;;5059345;28;20230;-48
2022/02/25 07:37:40;;;;;;;2.05;1.85;;;7.90;99.90;;;;;;5059365;28;20229;-47
2022/02/25 07:40:10;;;;;;;1.67;1.50;;;8.50;99.90;;;;;;5059539;28;20267;-51
2022/02/25 07:42:38;;;;;;;1.83;1.67;;;8.80;99.90;;;;;;5059224;28;20223;-54
2022/02/25 07:45:06;;;;;;;3.45;2.25;;;9.30;99.90;;;;;;5058516;28;20205;-51
2022/02/25 07:47:33;;;;;;;3.70;3.38;;;9.60;99.90;;;;;;5058957;28;20205;-50
2022/02/25 07:50:00;;;;;;;1.45;1.35;;;9.90;99.90;;;;;;5058585;28;20274;-50
2022/02/25 07:52:29;;;;;;;7.22;2.30;;;10.60;99.90;;;;;;5058920;28;20226;-48
2022/02/25 07:54:56;;;;;;;3.90;3.60;;;11.40;99.90;;;;;;5058858;28;20207;-48
2022/02/25 07:57:25;;;;;;;2.45;2.08;;;12.10;99.90;;;;;;5058343;28;20196;-45
2022/02/25 08:00:15;;;;;;;3.00;2.70;;;12.20;99.90;;;;;;5058855;28;20213;-47
2022/02/25 08:02:44;;;;;;;2.47;1.90;;;12.70;99.90;;;;;;5058795;28;20200;-54
2022/02/25 08:05:11;;;;;;;2.70;2.30;;;12.70;99.90;;;;;;5059225;28;20203;-46
2022/02/25 08:07:38;;;;;;;2.35;2.25;;;12.90;99.90;;;;;;5059184;28;20200;-48
2022/02/25 08:10:06;;;;;;;3.53;2.08;;;12.80;99.90;;;;;;5058827;28;20204;-48
2022/02/25 08:12:39;;;;;;;1.70;1.60;;;12.80;99.90;;;;;;5059037;28;20306;-51
2022/02/25 08:15:08;;;;;;;2.08;1.95;;;12.10;99.90;;;;;;5058921;28;20263;-48
2022/02/25 08:17:38;;;;;;;2.95;2.05;;;11.30;99.90;;;;;;5058564;28;20263;-49
2022/02/25 08:20:07;;;;;;;2.10;1.88;;;11.90;99.90;;;;;;5066381;28;20225;-53
2022/02/25 08:22:35;;;;;;;1.77;1.58;;;12.60;99.90;;;;;;5079736;28;20214;-47
2022/02/25 08:25:04;;;;;;;10.18;2.97;;;12.30;99.90;;;;;;5084193;28;20202;-49
2022/02/25 08:27:33;;;;;;;1.70;1.58;;;13.20;99.90;;;;;;5081375;28;20221;-53
2022/02/25 08:30:02;;;;;;;2.00;1.80;;;13.40;99.90;;;;;;5078833;28;20199;-51
2022/02/25 08:32:30;;;;;;;5.22;2.03;;;13.00;99.90;;;;;;5079241;28;20721;-45
2022/02/25 08:34:57;;;;;;;2.40;2.20;;;11.90;99.90;;;;;;5080982;28;20426;-49
2022/02/25 08:37:25;;;;;;;2.00;1.70;;;10.80;99.90;;;;;;5080650;28;20240;-48
2022/02/25 08:39:53;;;;;;;2.75;1.65;;;10.60;99.90;;;;;;5080422;28;20501;-47
2022/02/25 08:42:20;;;;;;;3.10;2.83;;;9.90;99.90;;;;;;5079753;28;20466;-49
2022/02/25 08:44:48;;;;;;;5.88;3.00;;;9.00;99.90;;;;;;5079304;28;20197;-46
2022/02/25 08:47:17;;;;;;;2.63;2.35;;;8.60;99.90;;;;;;5078510;28;20271;-52
2022/02/25 08:49:44;;;;;;;4.03;1.60;;;8.40;99.90;;;;;;5060937;28;20205;-48
2022/02/25 08:52:12;;;;;;;6.93;2.45;;;9.60;99.90;;;;;;5077618;28;20221;-53
2022/02/25 08:54:40;;;;;;;1.88;1.75;;;10.00;99.90;;;;;;5078210;28;20247;-52
2022/02/25 08:57:07;;;;;;;2.03;1.80;;;10.80;99.90;;;;;;5077916;28;20439;-48
2022/02/25 08:59:37;;;;;;;5.03;2.28;;;11.40;99.90;;;;;;5077910;28;20213;-50
2022/02/25 09:02:06;;;;;;;4.00;2.08;;;11.20;99.90;;;;;;5077874;28;20233;-50
2022/02/25 09:04:33;;;;;;;3.00;1.85;;;10.70;99.90;;;;;;5077886;28;20243;-45
2022/02/25 09:07:01;;;;;;;5.20;1.83;;;10.40;99.90;;;;;;5059880;28;20213;-48
2022/02/25 09:09:29;;;;;;;1.98;1.65;;;10.00;99.90;;;;;;5052778;28;20198;-52
2022/02/25 09:11:56;;;;;;;1.95;1.60;;;10.40;99.90;;;;;;5058598;28;20223;-48
2022/02/25 09:14:24;;;;;;;7.20;1.63;;;10.20;99.90;;;;;;5058500;28;20205;-48
2022/02/25 09:16:51;;;;;;;5.72;2.42;;;9.70;99.90;;;;;;5058956;28;20563;-48
2022/02/25 09:19:19;;;;;;;8.13;2.47;;;8.90;99.90;;;;;;5059084;28;20217;-47
2022/02/25 09:21:46;;;;;;;4.13;1.63;;;9.40;99.90;;;;;;5058728;28;20510;-50
2022/02/25 09:24:13;;;;;;;1.65;1.48;;;9.70;99.90;;;;;;5058910;28;20361;-49
2022/02/25 09:26:41;;;;;;;2.70;1.38;;;10.20;99.90;;;;;;5058692;28;20300;-49
2022/02/25 09:29:09;;;;;;;1.80;1.40;;;10.60;99.90;;;;;;5058421;28;20214;-45
2022/02/25 09:31:36;;;;;;;2.25;1.63;;;10.60;99.90;;;;;;5058623;28;20608;-48
2022/02/25 09:34:04;;;;;;;3.85;2.45;;;10.30;99.90;;;;;;5059057;28;20202;-53
2022/02/25 09:36:33;;;;;;;1.52;1.42;;;9.50;99.90;;;;;;5059080;28;20229;-45
2022/02/25 09:39:00;;;;;;;4.75;1.65;;;8.60;99.90;;;;;;5059176;28;20646;-45
2022/02/25 09:41:27;;;;;;;3.13;1.15;;;8.40;99.90;;;;;;5059018;28;20250;-50
2022/02/25 09:43:55;;;;;;;1.45;1.35;;;8.40;99.90;;;;;;5059138;28;20200;-47
2022/02/25 09:46:22;;;;;;;1.60;1.50;;;8.40;99.90;;;;;;5059363;28;20244;-45
2022/02/25 09:48:52;;;;;;;2.58;1.50;;;8.50;99.90;;;;;;5058363;28;20200;-48
2022/02/25 09:51:19;;;;;;;3.15;1.25;;;8.60;99.90;;;;;;5058712;28;20573;-47
2022/02/25 09:53:46;;;;;;;2.70;2.00;;;8.80;99.90;;;;;;5058515;28;20298;-51
2022/02/25 09:56:13;;;;;;;2.53;1.40;;;8.80;99.90;;;;;;5058857;28;20205;-50
2022/02/25 09:58:41;;;;;;;2.00;1.27;;;8.90;99.90;;;;;;5058197;28;20235;-50
2022/02/25 10:01:13;;;;;;;2.97;1.63;;;8.90;99.90;;;;;;5058948;28;20231;-50
2022/02/25 10:03:48;;;;;;;1.30;1.05;;;9.30;99.90;;;;;;5062580;28;20244;-50
2022/02/25 10:06:16;;;;;;;2.15;1.30;;;9.50;99.90;;;;;;5062954;28;20271;-52
2022/02/25 10:08:43;;;;;;;2.17;1.23;;;9.40;99.90;;;;;;5061769;28;20217;-47
2022/02/25 10:11:11;;;;;;;1.50;1.02;;;8.90;99.90;;;;;;5062771;28;20221;-47
2022/02/25 10:13:40;;;;;;;2.25;1.23;;;8.60;99.90;;;;;;5062180;28;20204;-51
2022/02/25 10:16:27;;;;;;;6.03;1.30;;;8.40;99.90;;;;;;5062695;28;20197;-49
2022/02/25 10:19:00;;;;;;;2.33;1.60;;;8.40;99.90;;;;;;5061689;28;20201;-48
2022/02/25 10:21:27;;;;;;;2.08;1.38;;;8.30;99.90;;;;;;5062453;28;20231;-49
2022/02/25 10:23:54;;;;;;;2.55;1.25;;;8.10;99.90;;;;;;5061905;28;20218;-49
2022/02/25 10:26:25;;;;;;;4.35;1.50;;;8.10;99.90;;;;;;5062218;28;20241;-49
2022/02/25 10:28:55;;;;;;;3.35;1.60;;;8.00;99.90;;;;;;5062129;28;20197;-47
2022/02/25 10:31:26;;;;;;;3.55;1.55;;;8.00;99.90;;;;;;5061924;28;20219;-51
2022/02/25 10:34:00;;;;;;;1.20;1.10;;;7.70;99.90;;;;;;5062063;28;20240;-50
2022/02/25 10:36:41;;;;;;;5.90;1.95;;;7.60;99.90;;;;;;5061765;28;20216;-46
2022/02/25 10:39:09;;;;;;;2.05;1.15;;;7.50;99.90;;;;;;5062233;28;20258;-47
2022/02/25 10:41:36;;;;;;;9.05;1.92;;;7.70;99.90;;;;;;5062067;28;20261;-47
2022/02/25 10:44:03;;;;;;;1.13;0.85;;;8.00;99.90;;;;;;5061871;28;20452;-48
2022/02/25 10:46:31;;;;;;;2.25;0.90;;;8.50;99.90;;;;;;5059028;28;20212;-53
2022/02/25 10:49:06;;;;;;;1.85;1.45;;;8.70;99.90;;;;;;5060806;28;20196;-50
2022/02/25 10:51:36;;;;;;;2.33;1.60;;;8.80;99.90;;;;;;5061697;28;20242;-52
2022/02/25 10:54:05;;;;;;;6.13;1.60;;;8.80;99.90;;;;;;5061755;28;20248;-48
2022/02/25 10:56:47;;;;;;;0.80;0.80;;;9.00;99.90;;;;;;5061961;28;20200;-51
2022/02/25 10:59:14;;;;;;;7.50;1.30;;;9.00;99.90;;;;;;5062200;28;20201;-49
2022/02/25 11:01:42;;;;;;;1.63;1.33;;;8.80;99.90;;;;;;5061713;28;20271;-46
2022/02/25 11:04:13;;;;;;;1.55;0.85;;;8.50;99.90;;;;;;5061312;28;20202;-52
2022/02/25 11:06:42;;;;;;;1.08;1.08;;;8.60;99.90;;;;;;5061390;28;20209;-49
2022/02/25 11:09:10;;;;;;;7.05;2.30;;;8.70;99.90;;;;;;5068509;28;20268;-45
2022/02/25 11:11:37;;;;;;;2.28;0.95;;;8.70;99.90;;;;;;5085675;28;20222;-48
2022/02/25 11:14:08;;;;;;;1.15;0.80;;;8.80;99.90;;;;;;5080179;28;20222;-49
2022/02/25 11:16:36;;;;;;;2.35;1.38;;;8.80;99.90;;;;;;5083065;28;20200;-55
2022/02/25 11:19:24;;;;;;;3.85;1.30;;;8.60;99.90;;;;;;5081057;28;20336;-49
2022/02/25 11:21:52;;;;;;;1.80;1.60;;;8.10;99.90;;;;;;5081169;28;20265;-49
2022/02/25 11:24:21;;;;;;;2.08;1.05;;;7.70;99.90;;;;;;5069382;28;20564;-45
2022/02/25 11:26:59;;;;;;;1.95;1.52;;;7.30;99.90;;;;;;5061156;28;20199;-53
2022/02/25 11:29:31;;;;;;;4.15;1.92;;;7.40;99.90;;;;;;5061514;28;20495;-49
2022/02/25 11:32:02;;;;;;;2.65;1.20;;;7.60;99.90;;;;;;5060786;28;20273;-47
2022/02/25 11:34:30;;;;;;;6.82;1.65;;;8.00;99.90;;;;;;5061103;28;20210;-45
2022/02/25 11:36:57;;;;;;;1.65;1.45;;;8.50;99.90;;;;;;5060771;28;20485;-45
2022/02/25 11:39:27;;;;;;;1.58;1.10;;;8.60;99.90;;;;;;5068254;28;20201;-53
2022/02/25 11:41:58;;;;;;;1.63;1.52;;;8.50;99.90;;;;;;5068731;28;20231;-50
2022/02/25 11:44:25;;;;;;;6.22;1.65;;;8.40;99.90;;;;;;5068833;28;20195;-54
2022/02/25 11:46:55;;;;;;;3.40;1.73;;;8.20;99.90;;;;;;5065613;28;20234;-52
2022/02/25 11:49:27;;;;;;;1.70;1.27;;;8.20;99.90;;;;;;5060821;28;20202;-47
2022/02/25 11:51:57;;;;;;;2.88;1.30;;;8.00;99.90;;;;;;5059928;28;20239;-47
2022/02/25 11:54:40;;;;;;;1.10;1.00;;;7.90;99.90;;;;;;5060987;28;20286;-46
2022/02/25 11:57:08;;;;;;;1.92;1.30;;;7.90;99.90;;;;;;5060612;28;20215;-49
2022/02/25 11:59:35;;;;;;;3.28;1.63;;;7.60;99.90;;;;;;5060527;28;20207;-47
2022/02/25 12:02:19;;;;;;;3.10;1.20;;;7.60;99.90;;;;;;5059980;28;20445;-48
2022/02/25 12:05:08;;;;;;;1.67;1.35;;;7.60;99.90;;;;;;5060288;28;20199;-46
2022/02/25 12:07:47;;;;;;;7.50;1.50;;;7.60;99.90;;;;;;5059298;28;20259;-46
2022/02/25 12:10:16;;;;;;;1.98;1.35;;;7.40;99.90;;;;;;5060223;28;20195;-46
2022/02/25 12:12:45;;;;;;;9.05;1.98;;;7.20;99.90;;;;;;5059582;28;20245;-51
2022/02/25 12:15:33;;;;;;;1.75;1.05;;;7.10;99.90;;;;;;5060736;28;20398;-48
2022/02/25 12:18:02;;;;;;;3.60;1.50;;;7.10;99.90;;;;;;5059984;28;20207;-50
2022/02/25 12:20:51;;;;;;;2.80;1.50;;;7.30;99.90;;;;;;5059465;28;20458;-48
2022/02/25 12:23:22;;;;;;;1.67;1.58;;;7.20;99.90;;;;;;5059822;28;20196;-47
2022/02/25 12:26:05;;;;;;;1.05;1.00;;;7.20;99.90;;;;;;5058238;28;20502;-49
2022/02/25 12:28:41;;;;;;;4.20;1.50;;;7.40;99.90;;;;;;5059740;28;20219;-48
2022/02/25 12:31:08;;;;;;;5.40;1.63;;;7.60;99.90;;;;;;5058728;28;20556;-48
2022/02/25 12:33:44;;;;;;;6.30;2.80;;;7.80;99.90;;;;;;5059691;28;20218;-46
2022/02/25 12:36:29;;;;;;;3.30;1.02;;;7.90;99.90;;;;;;5059451;28;20525;-49
2022/02/25 12:39:00;;;;;;;1.80;0.95;;;8.10;99.90;;;;;;5059874;28;20199;-52
2022/02/25 12:41:33;;;;;;;3.25;1.60;;;8.10;99.90;;;;;;5059628;28;20220;-54
2022/02/25 12:44:03;;;;;;;1.70;1.10;;;8.30;99.90;;;;;;5059637;28;20203;-50
2022/02/25 12:46:41;;;;;;;2.35;1.05;;;8.30;99.90;;;;;;5058233;28;20541;-48
2022/02/25 12:49:11;;;;;;;2.33;1.38;;;8.20;99.90;;;;;;5059181;28;20289;-48
2022/02/25 12:51:39;;;;;;;1.42;1.20;;;8.10;99.90;;;;;;5058622;28;20241;-45
2022/02/25 12:54:09;;;;;;;1.45;1.05;;;8.00;99.90;;;;;;5053161;28;20207;-49
2022/02/25 12:56:45;;;;;;;2.72;1.05;;;7.90;99.90;;;;;;5051140;28;20204;-50
2022/02/25 12:59:30;;;;;;;1.27;1.13;;;7.90;99.90;;;;;;5053830;28;20421;-50
2022/02/25 13:01:59;;;;;;;2.15;1.00;;;7.90;99.90;;;;;;5057845;28;20407;-45
2022/02/25 13:04:29;;;;;;;1.05;0.90;;;7.90;99.90;;;;;;5059029;28;20376;-45
2022/02/25 13:06:59;;;;;;;6.07;1.55;;;7.90;99.90;;;;;;5058762;28;20272;-47
2022/02/25 13:09:29;;;;;;;1.95;1.45;;;8.00;99.90;;;;;;5059038;28;20210;-47